sensor_id;sensor_type;location;lat;lon;timestamp;temperature;humidity
27026;DHT22;14565;48.626;8.978;2024-03-02T00:00:51;4.70;99.90
27026;DHT22;14565;48.626;8.978;2024-03-02T00:03:17;4.80;99.90
27026;DHT22;14565;48.626;8.978;2024-03-02T00:05:43;4.70;99.90
27026;DHT22;14565;48.626;8.978;2024-03-02T00:08:09;4.80;99.90
27026;DHT22;14565;48.626;8.978;2024-03-02T00:10:37;4.90;99.90
27026;DHT22;14565;48.626;8.978;2024-03-02T00:13:06;4.90;99.90
27026;DHT22;14565;48.626;8.978;2024-03-02T00:16:14;5.00;99.90
27026;DHT22;14565;48.626;8.978;2024-03-02T00:18:34;5.00;99.90
27026;DHT22;14565;48.626;8.978;2024-03-02T00:21:00;5.10;99.90
27026;DHT22;14565;48.626;8.978;2024-03-02T00:23:33;5.00;99.90
27026;DHT22;14565;48.626;8.978;2024-03-02T00:26:00;5.00;99.90
27026;DHT22;14565;48.626;8.978;2024-03-02T00:28:34;5.00;99.90
27026;DHT22;14565;48.626;8.978;2024-03-02T00:31:03;5.00;99.90
27026;DHT22;14565;48.626;8.978;2024-03-02T00:33:34;5.00;99.90
27026;DHT22;14565;48.626;8.978;2024-03-02T00:36:04;4.90;99.90
27026;DHT22;14565;48.626;8.978;2024-03-02T00:38:31;4.90;99.90
27026;DHT22;14565;48.626;8.978;2024-03-02T00:41:04;4.90;99.90
27026;DHT22;14565;48.626;8.978;2024-03-02T00:46:08;5.00;99.90
27026;DHT22;14565;48.626;8.978;2024-03-02T00:48:33;5.00;99.90
27026;DHT22;14565;48.626;8.978;2024-03-02T00:51:02;5.10;99.90
27026;DHT22;14565;48.626;8.978;2024-03-02T00:53:31;5.10;99.90
27026;DHT22;14565;48.626;8.978;2024-03-02T00:55:58;5.10;99.90
27026;DHT22;14565;48.626;8.978;2024-03-02T00:58:25;5.00;99.90
27026;DHT22;14565;48.626;8.978;2024-03-02T01:00:50;5.10;99.90
27026;DHT22;14565;48.626;8.978;2024-03-02T01:03:16;5.10;99.90
27026;DHT22;14565;48.626;8.978;2024-03-02T01:05:45;5.10;99.90
27026;DHT22;14565;48.626;8.978;2024-03-02T01:08:11;5.10;99.90
27026;DHT22;14565;48.626;8.978;2024-03-02T01:10:37;5.10;99.90
27026;DHT22;14565;48.626;8.978;2024-03-02T01:13:02;5.00;99.90
27026;DHT22;14565;48.626;8.978;2024-03-02T01:15:28;5.00;99.90
27026;DHT22;14565;48.626;8.978;2024-03-02T01:17:54;5.00;99.90
27026;DHT22;14565;48.626;8.978;2024-03-02T01:20:19;5.00;99.90
27026;DHT22;14565;48.626;8.978;2024-03-02T01:22:45;5.10;99.90
27026;DHT22;14565;48.626;8.978;2024-03-02T01:25:11;5.00;99.90
27026;DHT22;14565;48.626;8.978;2024-03-02T01:27:36;5.00;99.90
27026;DHT22;14565;48.626;8.978;2024-03-02T01:30:02;5.10;99.90
27026;DHT22;14565;48.626;8.978;2024-03-02T01:32:27;4.90;99.90
27026;DHT22;14565;48.626;8.978;2024-03-02T01:34:53;4.90;99.90
27026;DHT22;14565;48.626;8.978;2024-03-02T01:37:19;4.90;99.90
27026;DHT22;14565;48.626;8.978;2024-03-02T01:39:44;4.90;99.90
27026;DHT22;14565;48.626;8.978;2024-03-02T01:42:10;5.00;99.90
27026;DHT22;14565;48.626;8.978;2024-03-02T01:44:36;5.00;99.90
27026;DHT22;14565;48.626;8.978;2024-03-02T01:47:02;4.90;99.90
27026;DHT22;14565;48.626;8.978;2024-03-02T01:49:27;4.90;99.90
27026;DHT22;14565;48.626;8.978;2024-03-02T01:51:53;4.90;99.90
27026;DHT22;14565;48.626;8.978;2024-03-02T01:54:19;4.80;99.90
27026;DHT22;14565;48.626;8.978;2024-03-02T01:56:44;4.80;99.90
27026;DHT22;14565;48.626;8.978;2024-03-02T01:59:11;4.80;99.90
27026;DHT22;14565;48.626;8.978;2024-03-02T02:01:38;4.70;99.90
27026;DHT22;14565;48.626;8.978;2024-03-02T02:04:04;4.80;99.90
27026;DHT22;14565;48.626;8.978;2024-03-02T02:06:32;4.80;99.90
27026;DHT22;14565;48.626;8.978;2024-03-02T02:08:57;4.80;99.90
27026;DHT22;14565;48.626;8.978;2024-03-02T02:11:23;4.80;99.90
27026;DHT22;14565;48.626;8.978;2024-03-02T02:13:49;4.80;99.90
27026;DHT22;14565;48.626;8.978;2024-03-02T02:16:15;4.80;99.90
27026;DHT22;14565;48.626;8.978;2024-03-02T02:18:41;4.70;99.90
27026;DHT22;14565;48.626;8.978;2024-03-02T02:21:06;4.70;99.90
27026;DHT22;14565;48.626;8.978;2024-03-02T02:23:32;4.70;99.90
27026;DHT22;14565;48.626;8.978;2024-03-02T02:25:57;4.80;99.90
27026;DHT22;14565;48.626;8.978;2024-03-02T02:28:23;4.60;99.90
27026;DHT22;14565;48.626;8.978;2024-03-02T02:30:48;4.60;99.90
27026;DHT22;14565;48.626;8.978;2024-03-02T02:33:14;4.50;99.90
27026;DHT22;14565;48.626;8.978;2024-03-02T02:35:40;4.50;99.90
27026;DHT22;14565;48.626;8.978;2024-03-02T02:38:05;4.50;99.90
27026;DHT22;14565;48.626;8.978;2024-03-02T02:40:31;4.50;99.90
27026;DHT22;14565;48.626;8.978;2024-03-02T02:42:58;4.40;99.90
27026;DHT22;14565;48.626;8.978;2024-03-02T02:45:25;4.40;99.90
27026;DHT22;14565;48.626;8.978;2024-03-02T02:47:50;4.40;99.90
27026;DHT22;14565;48.626;8.978;2024-03-02T02:50:16;4.40;99.90
27026;DHT22;14565;48.626;8.978;2024-03-02T02:52:42;4.30;99.90
27026;DHT22;14565;48.626;8.978;2024-03-02T02:55:10;4.30;99.90
27026;DHT22;14565;48.626;8.978;2024-03-02T02:57:36;4.30;99.90
27026;DHT22;14565;48.626;8.978;2024-03-02T03:00:07;4.30;99.90
27026;DHT22;14565;48.626;8.978;2024-03-02T03:02:39;4.30;99.90
27026;DHT22;14565;48.626;8.978;2024-03-02T03:05:07;4.30;99.90
27026;DHT22;14565;48.626;8.978;2024-03-02T03:07:33;4.40;99.90
27026;DHT22;14565;48.626;8.978;2024-03-02T03:10:03;4.30;99.90
27026;DHT22;14565;48.626;8.978;2024-03-02T03:12:30;4.30;99.90
27026;DHT22;14565;48.626;8.978;2024-03-02T03:14:56;4.30;99.90
27026;DHT22;14565;48.626;8.978;2024-03-02T03:17:22;4.20;99.90
27026;DHT22;14565;48.626;8.978;2024-03-02T03:19:49;4.30;99.90
27026;DHT22;14565;48.626;8.978;2024-03-02T03:22:14;4.30;99.90
27026;DHT22;14565;48.626;8.978;2024-03-02T03:24:40;4.30;99.90
27026;DHT22;14565;48.626;8.978;2024-03-02T03:27:06;4.40;99.90
27026;DHT22;14565;48.626;8.978;2024-03-02T03:29:31;4.40;99.90
27026;DHT22;14565;48.626;8.978;2024-03-02T03:31:57;4.40;99.90
27026;DHT22;14565;48.626;8.978;2024-03-02T03:34:23;4.40;99.90
27026;DHT22;14565;48.626;8.978;2024-03-02T03:36:48;4.50;99.90
27026;DHT22;14565;48.626;8.978;2024-03-02T03:39:14;4.50;99.90
27026;DHT22;14565;48.626;8.978;2024-03-02T03:41:40;4.40;99.90
27026;DHT22;14565;48.626;8.978;2024-03-02T03:44:06;4.50;99.90
27026;DHT22;14565;48.626;8.978;2024-03-02T03:46:31;4.50;99.90
27026;DHT22;14565;48.626;8.978;2024-03-02T03:48:57;4.40;99.90
27026;DHT22;14565;48.626;8.978;2024-03-02T03:51:23;4.40;99.90
27026;DHT22;14565;48.626;8.978;2024-03-02T03:53:48;4.40;99.90
27026;DHT22;14565;48.626;8.978;2024-03-02T03:56:14;4.40;99.90
27026;DHT22;14565;48.626;8.978;2024-03-02T03:58:40;4.40;99.90
27026;DHT22;14565;48.626;8.978;2024-03-02T04:01:05;4.40;99.90
27026;DHT22;14565;48.626;8.978;2024-03-02T04:03:31;4.30;99.90
27026;DHT22;14565;48.626;8.978;2024-03-02T04:05:56;4.40;99.90
27026;DHT22;14565;48.626;8.978;2024-03-02T04:08:22;4.30;99.90
27026;DHT22;14565;48.626;8.978;2024-03-02T04:10:48;4.30;99.90
27026;DHT22;14565;48.626;8.978;2024-03-02T04:13:13;4.20;99.90
27026;DHT22;14565;48.626;8.978;2024-03-02T04:15:39;4.20;99.90
27026;DHT22;14565;48.626;8.978;2024-03-02T04:18:06;4.20;99.90
27026;DHT22;14565;48.626;8.978;2024-03-02T04:20:31;4.20;99.90
27026;DHT22;14565;48.626;8.978;2024-03-02T04:22:57;4.20;99.90
27026;DHT22;14565;48.626;8.978;2024-03-02T04:25:23;4.20;99.90
27026;DHT22;14565;48.626;8.978;2024-03-02T04:27:48;4.20;99.90
27026;DHT22;14565;48.626;8.978;2024-03-02T04:30:14;4.10;99.90
27026;DHT22;14565;48.626;8.978;2024-03-02T04:32:40;4.10;99.90
27026;DHT22;14565;48.626;8.978;2024-03-02T04:35:06;4.00;99.90
27026;DHT22;14565;48.626;8.978;2024-03-02T04:37:35;4.00;99.90
27026;DHT22;14565;48.626;8.978;2024-03-02T04:40:01;3.70;99.90
27026;DHT22;14565;48.626;8.978;2024-03-02T04:42:26;3.50;99.90
27026;DHT22;14565;48.626;8.978;2024-03-02T04:44:52;3.50;99.90
27026;DHT22;14565;48.626;8.978;2024-03-02T04:47:17;3.60;99.90
27026;DHT22;14565;48.626;8.978;2024-03-02T04:49:43;3.60;99.90
27026;DHT22;14565;48.626;8.978;2024-03-02T04:52:09;3.70;99.90
27026;DHT22;14565;48.626;8.978;2024-03-02T04:54:35;3.70;99.90
27026;DHT22;14565;48.626;8.978;2024-03-02T04:57:20;3.70;99.90
27026;DHT22;14565;48.626;8.978;2024-03-02T04:59:46;3.60;99.90
27026;DHT22;14565;48.626;8.978;2024-03-02T05:02:11;3.60;99.90
27026;DHT22;14565;48.626;8.978;2024-03-02T05:04:39;3.60;99.90
27026;DHT22;14565;48.626;8.978;2024-03-02T05:07:05;3.70;99.90
27026;DHT22;14565;48.626;8.978;2024-03-02T05:09:31;3.70;99.90
27026;DHT22;14565;48.626;8.978;2024-03-02T05:11:57;3.70;99.90
27026;DHT22;14565;48.626;8.978;2024-03-02T05:15:00;3.80;99.90
27026;DHT22;14565;48.626;8.978;2024-03-02T05:17:26;3.70;99.90
27026;DHT22;14565;48.626;8.978;2024-03-02T05:19:52;3.60;99.90
27026;DHT22;14565;48.626;8.978;2024-03-02T05:22:17;3.60;99.90
27026;DHT22;14565;48.626;8.978;2024-03-02T05:24:43;3.60;99.90
27026;DHT22;14565;48.626;8.978;2024-03-02T05:27:08;3.70;99.90
27026;DHT22;14565;48.626;8.978;2024-03-02T05:29:34;3.70;99.90
27026;DHT22;14565;48.626;8.978;2024-03-02T05:31:59;3.60;99.90
27026;DHT22;14565;48.626;8.978;2024-03-02T05:34:25;3.70;99.90
27026;DHT22;14565;48.626;8.978;2024-03-02T05:36:51;3.70;99.90
27026;DHT22;14565;48.626;8.978;2024-03-02T05:39:16;3.70;99.90
27026;DHT22;14565;48.626;8.978;2024-03-02T05:41:42;3.70;99.90
27026;DHT22;14565;48.626;8.978;2024-03-02T05:44:07;3.70;99.90
27026;DHT22;14565;48.626;8.978;2024-03-02T05:46:33;3.70;99.90
27026;DHT22;14565;48.626;8.978;2024-03-02T05:48:59;3.80;99.90
27026;DHT22;14565;48.626;8.978;2024-03-02T05:51:26;3.70;99.90
27026;DHT22;14565;48.626;8.978;2024-03-02T05:53:51;3.70;99.90
27026;DHT22;14565;48.626;8.978;2024-03-02T05:56:17;3.70;99.90
27026;DHT22;14565;48.626;8.978;2024-03-02T05:58:43;3.70;99.90
27026;DHT22;14565;48.626;8.978;2024-03-02T06:01:27;3.80;99.90
27026;DHT22;14565;48.626;8.978;2024-03-02T06:03:57;3.80;99.90
27026;DHT22;14565;48.626;8.978;2024-03-02T06:06:24;3.80;99.90
27026;DHT22;14565;48.626;8.978;2024-03-02T06:08:50;3.70;99.90
27026;DHT22;14565;48.626;8.978;2024-03-02T06:11:16;3.70;99.90
27026;DHT22;14565;48.626;8.978;2024-03-02T06:13:42;3.70;99.90
27026;DHT22;14565;48.626;8.978;2024-03-02T06:16:07;3.60;99.90
27026;DHT22;14565;48.626;8.978;2024-03-02T06:18:34;3.60;99.90
27026;DHT22;14565;48.626;8.978;2024-03-02T06:21:00;3.60;99.90
27026;DHT22;14565;48.626;8.978;2024-03-02T06:23:26;3.70;99.90
27026;DHT22;14565;48.626;8.978;2024-03-02T06:25:52;3.70;99.90
27026;DHT22;14565;48.626;8.978;2024-03-02T06:28:18;3.70;99.90
27026;DHT22;14565;48.626;8.978;2024-03-02T06:30:44;3.70;99.90
27026;DHT22;14565;48.626;8.978;2024-03-02T06:33:10;3.70;99.90
27026;DHT22;14565;48.626;8.978;2024-03-02T06:35:36;3.70;99.90
27026;DHT22;14565;48.626;8.978;2024-03-02T06:38:02;3.70;99.90
27026;DHT22;14565;48.626;8.978;2024-03-02T06:40:27;3.70;99.90
27026;DHT22;14565;48.626;8.978;2024-03-02T06:42:53;3.70;99.90
27026;DHT22;14565;48.626;8.978;2024-03-02T06:45:19;3.80;99.90
27026;DHT22;14565;48.626;8.978;2024-03-02T06:47:44;3.80;99.90
27026;DHT22;14565;48.626;8.978;2024-03-02T06:50:10;3.80;99.90
27026;DHT22;14565;48.626;8.978;2024-03-02T06:52:36;3.80;99.90
27026;DHT22;14565;48.626;8.978;2024-03-02T06:55:02;3.80;99.90
27026;DHT22;14565;48.626;8.978;2024-03-02T06:57:29;3.80;99.90
27026;DHT22;14565;48.626;8.978;2024-03-02T06:59:55;3.80;99.90
27026;DHT22;14565;48.626;8.978;2024-03-02T07:02:26;3.90;99.90
27026;DHT22;14565;48.626;8.978;2024-03-02T07:04:55;3.90;99.90
27026;DHT22;14565;48.626;8.978;2024-03-02T07:07:20;4.00;99.90
27026;DHT22;14565;48.626;8.978;2024-03-02T07:09:47;4.00;99.90
27026;DHT22;14565;48.626;8.978;2024-03-02T07:12:13;4.20;99.90
27026;DHT22;14565;48.626;8.978;2024-03-02T07:14:39;4.10;99.90
27026;DHT22;14565;48.626;8.978;2024-03-02T07:17:23;4.20;99.90
27026;DHT22;14565;48.626;8.978;2024-03-02T07:19:49;4.30;99.90
27026;DHT22;14565;48.626;8.978;2024-03-02T07:22:14;4.30;99.90
27026;DHT22;14565;48.626;8.978;2024-03-02T07:24:44;4.30;99.90
27026;DHT22;14565;48.626;8.978;2024-03-02T07:27:12;4.30;99.90
27026;DHT22;14565;48.626;8.978;2024-03-02T07:29:38;4.30;99.90
27026;DHT22;14565;48.626;8.978;2024-03-02T07:32:04;4.30;99.90
27026;DHT22;14565;48.626;8.978;2024-03-02T07:34:30;4.40;99.90
27026;DHT22;14565;48.626;8.978;2024-03-02T07:36:56;4.40;99.90
27026;DHT22;14565;48.626;8.978;2024-03-02T07:39:22;4.40;99.90
27026;DHT22;14565;48.626;8.978;2024-03-02T07:41:48;4.40;99.90
27026;DHT22;14565;48.626;8.978;2024-03-02T07:44:14;4.40;99.90
27026;DHT22;14565;48.626;8.978;2024-03-02T07:46:43;4.40;99.90
27026;DHT22;14565;48.626;8.978;2024-03-02T07:49:09;4.40;99.90
27026;DHT22;14565;48.626;8.978;2024-03-02T07:51:35;4.60;99.90
27026;DHT22;14565;48.626;8.978;2024-03-02T07:54:01;4.70;99.90
27026;DHT22;14565;48.626;8.978;2024-03-02T07:56:27;4.80;99.90
27026;DHT22;14565;48.626;8.978;2024-03-02T07:58:54;5.00;99.90
27026;DHT22;14565;48.626;8.978;2024-03-02T08:01:21;5.20;99.90
27026;DHT22;14565;48.626;8.978;2024-03-02T08:03:47;5.40;99.90
27026;DHT22;14565;48.626;8.978;2024-03-02T08:06:15;5.60;99.90
27026;DHT22;14565;48.626;8.978;2024-03-02T08:08:41;5.80;99.90
27026;DHT22;14565;48.626;8.978;2024-03-02T08:11:07;6.00;99.90
27026;DHT22;14565;48.626;8.978;2024-03-02T08:13:32;6.00;99.90
27026;DHT22;14565;48.626;8.978;2024-03-02T08:15:58;6.20;99.90
27026;DHT22;14565;48.626;8.978;2024-03-02T08:18:24;6.40;99.90
27026;DHT22;14565;48.626;8.978;2024-03-02T08:20:50;6.60;99.90
27026;DHT22;14565;48.626;8.978;2024-03-02T08:23:15;6.90;99.90
27026;DHT22;14565;48.626;8.978;2024-03-02T08:25:42;7.10;99.90
27026;DHT22;14565;48.626;8.978;2024-03-02T08:28:07;7.00;99.90
27026;DHT22;14565;48.626;8.978;2024-03-02T08:30:33;7.10;99.90
27026;DHT22;14565;48.626;8.978;2024-03-02T08:32:59;7.30;99.90
27026;DHT22;14565;48.626;8.978;2024-03-02T08:35:25;7.60;99.90
27026;DHT22;14565;48.626;8.978;2024-03-02T08:37:51;7.90;99.90
27026;DHT22;14565;48.626;8.978;2024-03-02T08:40:17;8.00;99.90
27026;DHT22;14565;48.626;8.978;2024-03-02T08:42:42;7.90;99.90
27026;DHT22;14565;48.626;8.978;2024-03-02T08:45:08;8.20;99.90
27026;DHT22;14565;48.626;8.978;2024-03-02T08:47:34;8.40;99.90
27026;DHT22;14565;48.626;8.978;2024-03-02T08:50:00;8.60;99.90
27026;DHT22;14565;48.626;8.978;2024-03-02T08:52:26;9.00;99.90
27026;DHT22;14565;48.626;8.978;2024-03-02T08:54:52;8.70;99.90
27026;DHT22;14565;48.626;8.978;2024-03-02T08:57:18;8.70;99.90
27026;DHT22;14565;48.626;8.978;2024-03-02T08:59:44;9.00;99.90
27026;DHT22;14565;48.626;8.978;2024-03-02T09:02:10;9.30;99.90
27026;DHT22;14565;48.626;8.978;2024-03-02T09:04:36;9.80;99.90
27026;DHT22;14565;48.626;8.978;2024-03-02T09:07:01;9.80;99.90
27026;DHT22;14565;48.626;8.978;2024-03-02T09:09:27;10.10;99.90
27026;DHT22;14565;48.626;8.978;2024-03-02T09:11:53;10.10;99.90
27026;DHT22;14565;48.626;8.978;2024-03-02T09:14:23;10.80;99.90
27026;DHT22;14565;48.626;8.978;2024-03-02T09:16:52;10.20;99.90
27026;DHT22;14565;48.626;8.978;2024-03-02T09:19:17;10.80;99.90
27026;DHT22;14565;48.626;8.978;2024-03-02T09:21:44;11.30;99.90
27026;DHT22;14565;48.626;8.978;2024-03-02T09:24:09;11.40;99.90
27026;DHT22;14565;48.626;8.978;2024-03-02T09:26:35;11.00;99.90
27026;DHT22;14565;48.626;8.978;2024-03-02T09:29:01;10.50;99.90
27026;DHT22;14565;48.626;8.978;2024-03-02T09:31:26;10.10;99.90
27026;DHT22;14565;48.626;8.978;2024-03-02T09:33:52;10.20;99.90
27026;DHT22;14565;48.626;8.978;2024-03-02T09:36:21;10.30;99.90
27026;DHT22;14565;48.626;8.978;2024-03-02T09:38:48;10.20;99.90
27026;DHT22;14565;48.626;8.978;2024-03-02T09:41:14;10.50;99.90
27026;DHT22;14565;48.626;8.978;2024-03-02T09:43:40;10.80;99.90
27026;DHT22;14565;48.626;8.978;2024-03-02T09:46:09;11.20;99.90
27026;DHT22;14565;48.626;8.978;2024-03-02T09:48:34;11.30;99.90
27026;DHT22;14565;48.626;8.978;2024-03-02T09:51:01;11.40;99.90
27026;DHT22;14565;48.626;8.978;2024-03-02T09:53:33;11.50;99.90
27026;DHT22;14565;48.626;8.978;2024-03-02T09:56:02;11.30;99.90
27026;DHT22;14565;48.626;8.978;2024-03-02T09:58:28;11.10;99.90
27026;DHT22;14565;48.626;8.978;2024-03-02T10:00:54;11.10;99.90
27026;DHT22;14565;48.626;8.978;2024-03-02T10:03:19;11.30;99.90
27026;DHT22;14565;48.626;8.978;2024-03-02T10:05:49;11.40;99.90
27026;DHT22;14565;48.626;8.978;2024-03-02T10:08:14;11.50;99.90
27026;DHT22;14565;48.626;8.978;2024-03-02T10:10:41;11.70;99.90
27026;DHT22;14565;48.626;8.978;2024-03-02T10:13:12;11.80;99.90
27026;DHT22;14565;48.626;8.978;2024-03-02T10:15:39;11.60;99.90
27026;DHT22;14565;48.626;8.978;2024-03-02T10:18:09;11.90;99.90
27026;DHT22;14565;48.626;8.978;2024-03-02T10:20:40;11.60;99.90
27026;DHT22;14565;48.626;8.978;2024-03-02T10:23:16;11.50;99.90
27026;DHT22;14565;48.626;8.978;2024-03-02T10:25:43;12.00;99.90
27026;DHT22;14565;48.626;8.978;2024-03-02T10:28:09;12.00;99.90
27026;DHT22;14565;48.626;8.978;2024-03-02T10:30:36;12.00;99.90
27026;DHT22;14565;48.626;8.978;2024-03-02T10:33:03;12.00;99.90
27026;DHT22;14565;48.626;8.978;2024-03-02T10:35:29;12.30;99.90
27026;DHT22;14565;48.626;8.978;2024-03-02T10:37:59;12.40;99.90
27026;DHT22;14565;48.626;8.978;2024-03-02T10:40:26;12.10;99.90
27026;DHT22;14565;48.626;8.978;2024-03-02T10:42:52;12.30;99.90
27026;DHT22;14565;48.626;8.978;2024-03-02T10:45:20;12.20;99.90
27026;DHT22;14565;48.626;8.978;2024-03-02T10:47:47;12.60;99.90
27026;DHT22;14565;48.626;8.978;2024-03-02T10:50:13;13.00;99.90
27026;DHT22;14565;48.626;8.978;2024-03-02T10:52:39;13.10;99.90
27026;DHT22;14565;48.626;8.978;2024-03-02T10:55:06;13.20;99.90
27026;DHT22;14565;48.626;8.978;2024-03-02T11:00:15;13.20;99.90
27026;DHT22;14565;48.626;8.978;2024-03-02T11:02:51;13.00;99.90
27026;DHT22;14565;48.626;8.978;2024-03-02T11:05:26;13.10;99.90
27026;DHT22;14565;48.626;8.978;2024-03-02T11:07:59;12.90;99.90
27026;DHT22;14565;48.626;8.978;2024-03-02T11:10:28;13.20;99.90
27026;DHT22;14565;48.626;8.978;2024-03-02T11:15:55;13.40;99.90
27026;DHT22;14565;48.626;8.978;2024-03-02T11:18:30;13.20;99.90
27026;DHT22;14565;48.626;8.978;2024-03-02T11:21:09;13.10;99.90
27026;DHT22;14565;48.626;8.978;2024-03-02T11:23:35;12.60;99.90
27026;DHT22;14565;48.626;8.978;2024-03-02T11:26:20;12.80;99.90
27026;DHT22;14565;48.626;8.978;2024-03-02T11:28:46;13.00;99.90
27026;DHT22;14565;48.626;8.978;2024-03-02T11:31:12;13.10;99.90
27026;DHT22;14565;48.626;8.978;2024-03-02T11:33:38;13.40;99.90
27026;DHT22;14565;48.626;8.978;2024-03-02T11:36:05;13.00;99.90
27026;DHT22;14565;48.626;8.978;2024-03-02T11:38:33;13.10;99.90
27026;DHT22;14565;48.626;8.978;2024-03-02T11:41:00;13.40;99.90
27026;DHT22;14565;48.626;8.978;2024-03-02T11:43:28;13.30;99.90
27026;DHT22;14565;48.626;8.978;2024-03-02T11:45:58;13.50;99.90
27026;DHT22;14565;48.626;8.978;2024-03-02T11:48:25;13.70;99.90
27026;DHT22;14565;48.626;8.978;2024-03-02T11:50:51;13.30;99.90
27026;DHT22;14565;48.626;8.978;2024-03-02T11:53:17;13.50;99.90
27026;DHT22;14565;48.626;8.978;2024-03-02T11:55:45;13.20;99.90
27026;DHT22;14565;48.626;8.978;2024-03-02T11:58:14;13.70;99.90
27026;DHT22;14565;48.626;8.978;2024-03-02T12:00:43;13.90;99.90
27026;DHT22;14565;48.626;8.978;2024-03-02T12:03:12;14.20;99.90
27026;DHT22;14565;48.626;8.978;2024-03-02T12:05:37;13.90;99.90
27026;DHT22;14565;48.626;8.978;2024-03-02T12:08:07;14.10;99.90
27026;DHT22;14565;48.626;8.978;2024-03-02T12:10:34;13.80;99.90
27026;DHT22;14565;48.626;8.978;2024-03-02T12:13:04;14.00;99.90
27026;DHT22;14565;48.626;8.978;2024-03-02T12:15:35;13.90;99.90
27026;DHT22;14565;48.626;8.978;2024-03-02T12:18:04;13.90;99.90
27026;DHT22;14565;48.626;8.978;2024-03-02T12:20:31;13.80;99.90
27026;DHT22;14565;48.626;8.978;2024-03-02T12:23:01;13.30;99.90
27026;DHT22;14565;48.626;8.978;2024-03-02T12:25:28;13.30;99.90
27026;DHT22;14565;48.626;8.978;2024-03-02T12:28:01;13.70;99.90
27026;DHT22;14565;48.626;8.978;2024-03-02T12:30:29;13.80;99.90
27026;DHT22;14565;48.626;8.978;2024-03-02T12:32:56;14.00;99.90
27026;DHT22;14565;48.626;8.978;2024-03-02T12:35:21;14.00;99.90
27026;DHT22;14565;48.626;8.978;2024-03-02T12:37:49;14.00;99.90
27026;DHT22;14565;48.626;8.978;2024-03-02T12:40:17;13.80;99.90
27026;DHT22;14565;48.626;8.978;2024-03-02T12:42:54;13.70;99.90
27026;DHT22;14565;48.626;8.978;2024-03-02T12:45:20;13.90;99.90
27026;DHT22;14565;48.626;8.978;2024-03-02T12:47:49;13.90;99.90
27026;DHT22;14565;48.626;8.978;2024-03-02T12:50:15;13.90;99.90
27026;DHT22;14565;48.626;8.978;2024-03-02T12:52:40;13.90;99.90
27026;DHT22;14565;48.626;8.978;2024-03-02T12:55:12;13.70;99.90
27026;DHT22;14565;48.626;8.978;2024-03-02T12:57:58;13.60;99.90
27026;DHT22;14565;48.626;8.978;2024-03-02T13:00:30;13.60;99.90
27026;DHT22;14565;48.626;8.978;2024-03-02T13:03:00;13.70;99.90
27026;DHT22;14565;48.626;8.978;2024-03-02T13:05:34;13.80;99.90
27026;DHT22;14565;48.626;8.978;2024-03-02T13:08:00;13.60;99.90
27026;DHT22;14565;48.626;8.978;2024-03-02T13:10:28;13.50;99.90
27026;DHT22;14565;48.626;8.978;2024-03-02T13:12:55;13.50;99.90
27026;DHT22;14565;48.626;8.978;2024-03-02T13:15:21;13.40;99.90
27026;DHT22;14565;48.626;8.978;2024-03-02T13:17:46;13.40;99.90
27026;DHT22;14565;48.626;8.978;2024-03-02T13:20:12;13.20;99.90
27026;DHT22;14565;48.626;8.978;2024-03-02T13:22:45;13.30;99.90
27026;DHT22;14565;48.626;8.978;2024-03-02T13:25:11;13.40;99.90
27026;DHT22;14565;48.626;8.978;2024-03-02T13:27:36;13.50;99.90
27026;DHT22;14565;48.626;8.978;2024-03-02T13:30:03;13.60;99.90
27026;DHT22;14565;48.626;8.978;2024-03-02T13:32:31;13.50;99.90
27026;DHT22;14565;48.626;8.978;2024-03-02T13:34:57;13.30;99.90
27026;DHT22;14565;48.626;8.978;2024-03-02T13:37:22;13.20;99.90
27026;DHT22;14565;48.626;8.978;2024-03-02T13:39:48;13.20;99.90
27026;DHT22;14565;48.626;8.978;2024-03-02T13:42:14;13.00;99.90
27026;DHT22;14565;48.626;8.978;2024-03-02T13:44:42;12.80;99.90
27026;DHT22;14565;48.626;8.978;2024-03-02T13:47:09;12.80;99.90
27026;DHT22;14565;48.626;8.978;2024-03-02T13:49:55;12.80;99.90
27026;DHT22;14565;48.626;8.978;2024-03-02T13:52:30;12.90;99.90
27026;DHT22;14565;48.626;8.978;2024-03-02T13:54:55;12.80;99.90
27026;DHT22;14565;48.626;8.978;2024-03-02T13:57:21;12.80;99.90
27026;DHT22;14565;48.626;8.978;2024-03-02T13:59:47;13.00;99.90
27026;DHT22;14565;48.626;8.978;2024-03-02T14:02:15;12.90;99.90
27026;DHT22;14565;48.626;8.978;2024-03-02T14:04:41;12.80;99.90
27026;DHT22;14565;48.626;8.978;2024-03-02T14:07:07;12.80;99.90
27026;DHT22;14565;48.626;8.978;2024-03-02T14:09:32;12.70;99.90
27026;DHT22;14565;48.626;8.978;2024-03-02T14:11:58;12.90;99.90
27026;DHT22;14565;48.626;8.978;2024-03-02T14:14:26;13.00;99.90
27026;DHT22;14565;48.626;8.978;2024-03-02T14:17:01;12.90;99.90
27026;DHT22;14565;48.626;8.978;2024-03-02T14:19:29;13.10;99.90
27026;DHT22;14565;48.626;8.978;2024-03-02T14:21:59;13.10;99.90
27026;DHT22;14565;48.626;8.978;2024-03-02T14:24:24;13.10;99.90
27026;DHT22;14565;48.626;8.978;2024-03-02T14:26:52;13.10;99.90
27026;DHT22;14565;48.626;8.978;2024-03-02T14:29:18;13.20;99.90
27026;DHT22;14565;48.626;8.978;2024-03-02T14:31:43;13.10;99.90
27026;DHT22;14565;48.626;8.978;2024-03-02T14:34:16;13.00;99.90
27026;DHT22;14565;48.626;8.978;2024-03-02T14:36:42;13.00;99.90
27026;DHT22;14565;48.626;8.978;2024-03-02T14:39:15;13.00;99.90
27026;DHT22;14565;48.626;8.978;2024-03-02T14:41:41;13.20;99.90
27026;DHT22;14565;48.626;8.978;2024-03-02T14:44:06;13.30;99.90
27026;DHT22;14565;48.626;8.978;2024-03-02T14:46:32;13.40;99.90
27026;DHT22;14565;48.626;8.978;2024-03-02T14:48:57;13.20;99.90
27026;DHT22;14565;48.626;8.978;2024-03-02T14:51:30;13.20;99.90
27026;DHT22;14565;48.626;8.978;2024-03-02T14:53:56;13.20;99.90
27026;DHT22;14565;48.626;8.978;2024-03-02T14:56:21;13.10;99.90
27026;DHT22;14565;48.626;8.978;2024-03-02T14:58:47;13.30;99.90
27026;DHT22;14565;48.626;8.978;2024-03-02T15:01:13;13.50;99.90
27026;DHT22;14565;48.626;8.978;2024-03-02T15:03:40;13.50;99.90
27026;DHT22;14565;48.626;8.978;2024-03-02T15:06:14;13.40;99.90
27026;DHT22;14565;48.626;8.978;2024-03-02T15:08:40;13.40;99.90
27026;DHT22;14565;48.626;8.978;2024-03-02T15:11:09;13.20;99.90
27026;DHT22;14565;48.626;8.978;2024-03-02T15:13:36;13.10;99.90
27026;DHT22;14565;48.626;8.978;2024-03-02T15:16:11;13.00;99.90
27026;DHT22;14565;48.626;8.978;2024-03-02T15:18:37;13.00;99.90
27026;DHT22;14565;48.626;8.978;2024-03-02T15:21:03;12.80;99.90
27026;DHT22;14565;48.626;8.978;2024-03-02T15:23:29;12.70;99.90
27026;DHT22;14565;48.626;8.978;2024-03-02T15:25:55;12.50;99.90
27026;DHT22;14565;48.626;8.978;2024-03-02T15:28:21;12.50;99.90
27026;DHT22;14565;48.626;8.978;2024-03-02T15:30:46;12.50;99.90
27026;DHT22;14565;48.626;8.978;2024-03-02T15:33:12;12.50;99.90
27026;DHT22;14565;48.626;8.978;2024-03-02T15:35:47;12.40;99.90
27026;DHT22;14565;48.626;8.978;2024-03-02T15:38:16;12.50;99.90
27026;DHT22;14565;48.626;8.978;2024-03-02T15:40:45;12.50;99.90
27026;DHT22;14565;48.626;8.978;2024-03-02T15:43:11;12.40;99.90
27026;DHT22;14565;48.626;8.978;2024-03-02T15:45:36;12.30;99.90
27026;DHT22;14565;48.626;8.978;2024-03-02T15:48:02;12.30;99.90